sensor_id;sensor_type;location;lat;lon;timestamp;temperature;humidity
31271;DHT22;17904;47.420;9.310;2022-12-07T00:01:14;1.10;99.90
31271;DHT22;17904;47.420;9.310;2022-12-07T00:03:42;1.20;99.90
31271;DHT22;17904;47.420;9.310;2022-12-07T00:06:11;1.10;99.90
31271;DHT22;17904;47.420;9.310;2022-12-07T00:08:38;1.20;99.90
31271;DHT22;17904;47.420;9.310;2022-12-07T00:11:09;1.10;99.90
31271;DHT22;17904;47.420;9.310;2022-12-07T00:13:37;1.20;99.90
31271;DHT22;17904;47.420;9.310;2022-12-07T00:16:06;1.20;99.90
31271;DHT22;17904;47.420;9.310;2022-12-07T00:18:34;1.20;99.90
31271;DHT22;17904;47.420;9.310;2022-12-07T00:21:06;1.20;99.90
31271;DHT22;17904;47.420;9.310;2022-12-07T00:23:34;1.20;99.90
31271;DHT22;17904;47.420;9.310;2022-12-07T00:28:37;1.20;99.90
31271;DHT22;17904;47.420;9.310;2022-12-07T00:31:04;1.20;99.90
31271;DHT22;17904;47.420;9.310;2022-12-07T00:33:32;1.20;99.90
31271;DHT22;17904;47.420;9.310;2022-12-07T00:36:00;1.20;99.90
31271;DHT22;17904;47.420;9.310;2022-12-07T00:38:31;1.20;99.90
31271;DHT22;17904;47.420;9.310;2022-12-07T00:41:02;1.20;99.90
31271;DHT22;17904;47.420;9.310;2022-12-07T00:43:29;1.20;99.90
31271;DHT22;17904;47.420;9.310;2022-12-07T00:45:56;1.20;99.90
31271;DHT22;17904;47.420;9.310;2022-12-07T00:48:23;1.20;99.90
31271;DHT22;17904;47.420;9.310;2022-12-07T00:50:50;1.30;99.90
31271;DHT22;17904;47.420;9.310;2022-12-07T00:53:18;1.30;99.90
31271;DHT22;17904;47.420;9.310;2022-12-07T00:55:44;1.30;99.90
31271;DHT22;17904;47.420;9.310;2022-12-07T00:58:11;1.30;99.90
31271;DHT22;17904;47.420;9.310;2022-12-07T01:00:38;1.30;99.90
31271;DHT22;17904;47.420;9.310;2022-12-07T01:03:07;1.30;99.90
31271;DHT22;17904;47.420;9.310;2022-12-07T01:05:35;1.30;99.90
31271;DHT22;17904;47.420;9.310;2022-12-07T01:08:02;1.30;99.90
31271;DHT22;17904;47.420;9.310;2022-12-07T01:10:30;1.30;99.90
31271;DHT22;17904;47.420;9.310;2022-12-07T01:12:58;1.30;99.90
31271;DHT22;17904;47.420;9.310;2022-12-07T01:15:25;1.30;99.90
31271;DHT22;17904;47.420;9.310;2022-12-07T01:17:53;1.30;99.90
31271;DHT22;17904;47.420;9.310;2022-12-07T01:20:21;1.30;99.90
31271;DHT22;17904;47.420;9.310;2022-12-07T01:22:48;1.30;99.90
31271;DHT22;17904;47.420;9.310;2022-12-07T01:25:15;1.30;99.90
31271;DHT22;17904;47.420;9.310;2022-12-07T01:27:41;1.30;99.90
31271;DHT22;17904;47.420;9.310;2022-12-07T01:30:10;1.30;99.90
31271;DHT22;17904;47.420;9.310;2022-12-07T01:32:37;1.30;99.90
31271;DHT22;17904;47.420;9.310;2022-12-07T01:35:04;1.30;99.90
31271;DHT22;17904;47.420;9.310;2022-12-07T01:37:38;1.30;99.90
31271;DHT22;17904;47.420;9.310;2022-12-07T01:40:07;1.30;99.90
31271;DHT22;17904;47.420;9.310;2022-12-07T01:42:34;1.30;99.90
31271;DHT22;17904;47.420;9.310;2022-12-07T01:45:34;1.40;99.90
31271;DHT22;17904;47.420;9.310;2022-12-07T01:48:03;1.40;99.90
31271;DHT22;17904;47.420;9.310;2022-12-07T01:50:31;1.40;99.90
31271;DHT22;17904;47.420;9.310;2022-12-07T01:52:59;1.40;99.90
31271;DHT22;17904;47.420;9.310;2022-12-07T01:55:27;1.40;99.90
31271;DHT22;17904;47.420;9.310;2022-12-07T01:57:54;1.40;99.90
31271;DHT22;17904;47.420;9.310;2022-12-07T02:00:22;1.40;99.90
31271;DHT22;17904;47.420;9.310;2022-12-07T02:03:05;1.40;99.90
31271;DHT22;17904;47.420;9.310;2022-12-07T02:05:34;1.40;99.90
31271;DHT22;17904;47.420;9.310;2022-12-07T02:08:02;1.40;99.90
31271;DHT22;17904;47.420;9.310;2022-12-07T02:10:30;1.40;99.90
31271;DHT22;17904;47.420;9.310;2022-12-07T02:15:58;1.40;99.90
31271;DHT22;17904;47.420;9.310;2022-12-07T02:26:35;1.40;99.90
31271;DHT22;17904;47.420;9.310;2022-12-07T02:29:17;1.40;99.90
31271;DHT22;17904;47.420;9.310;2022-12-07T02:34:49;1.40;99.90
31271;DHT22;17904;47.420;9.310;2022-12-07T02:37:27;1.40;99.90
31271;DHT22;17904;47.420;9.310;2022-12-07T02:40:00;1.40;99.90
31271;DHT22;17904;47.420;9.310;2022-12-07T02:42:36;1.40;99.90
31271;DHT22;17904;47.420;9.310;2022-12-07T02:45:06;1.40;99.90
31271;DHT22;17904;47.420;9.310;2022-12-07T02:47:34;1.40;99.90
31271;DHT22;17904;47.420;9.310;2022-12-07T02:50:04;1.40;99.90
31271;DHT22;17904;47.420;9.310;2022-12-07T02:52:31;1.40;99.90
31271;DHT22;17904;47.420;9.310;2022-12-07T02:54:59;1.50;99.90
31271;DHT22;17904;47.420;9.310;2022-12-07T03:00:26;1.50;99.90
31271;DHT22;17904;47.420;9.310;2022-12-07T03:05:58;1.50;99.90
31271;DHT22;17904;47.420;9.310;2022-12-07T03:11:10;1.50;99.90
31271;DHT22;17904;47.420;9.310;2022-12-07T03:16:25;1.50;99.90
31271;DHT22;17904;47.420;9.310;2022-12-07T03:19:12;1.50;99.90
31271;DHT22;17904;47.420;9.310;2022-12-07T03:21:43;1.50;99.90
31271;DHT22;17904;47.420;9.310;2022-12-07T03:24:17;1.50;99.90
31271;DHT22;17904;47.420;9.310;2022-12-07T03:26:49;1.50;99.90
31271;DHT22;17904;47.420;9.310;2022-12-07T03:29:26;1.50;99.90
31271;DHT22;17904;47.420;9.310;2022-12-07T03:32:23;1.50;99.90
31271;DHT22;17904;47.420;9.310;2022-12-07T03:37:49;1.50;99.90
31271;DHT22;17904;47.420;9.310;2022-12-07T03:40:29;1.50;99.90
31271;DHT22;17904;47.420;9.310;2022-12-07T03:42:57;1.50;99.90
31271;DHT22;17904;47.420;9.310;2022-12-07T03:45:37;1.50;99.90
31271;DHT22;17904;47.420;9.310;2022-12-07T03:48:09;1.50;99.90
31271;DHT22;17904;47.420;9.310;2022-12-07T03:53:15;1.50;99.90
31271;DHT22;17904;47.420;9.310;2022-12-07T03:55:46;1.50;99.90
31271;DHT22;17904;47.420;9.310;2022-12-07T03:58:16;1.50;99.90
31271;DHT22;17904;47.420;9.310;2022-12-07T04:00:46;1.50;99.90
31271;DHT22;17904;47.420;9.310;2022-12-07T04:03:13;1.50;99.90
31271;DHT22;17904;47.420;9.310;2022-12-07T04:05:39;1.50;99.90
31271;DHT22;17904;47.420;9.310;2022-12-07T04:08:07;1.40;99.90
31271;DHT22;17904;47.420;9.310;2022-12-07T04:10:34;1.40;99.90
31271;DHT22;17904;47.420;9.310;2022-12-07T04:13:01;1.40;99.90
31271;DHT22;17904;47.420;9.310;2022-12-07T04:15:28;1.40;99.90
31271;DHT22;17904;47.420;9.310;2022-12-07T04:17:54;1.40;99.90
31271;DHT22;17904;47.420;9.310;2022-12-07T04:20:21;1.40;99.90
31271;DHT22;17904;47.420;9.310;2022-12-07T04:22:48;1.40;99.90
31271;DHT22;17904;47.420;9.310;2022-12-07T04:25:15;1.40;99.90
31271;DHT22;17904;47.420;9.310;2022-12-07T04:27:42;1.40;99.90
31271;DHT22;17904;47.420;9.310;2022-12-07T04:30:09;1.40;99.90
31271;DHT22;17904;47.420;9.310;2022-12-07T04:32:36;1.40;99.90
31271;DHT22;17904;47.420;9.310;2022-12-07T04:35:04;1.40;99.90
31271;DHT22;17904;47.420;9.310;2022-12-07T04:37:31;1.40;99.90
31271;DHT22;17904;47.420;9.310;2022-12-07T04:39:57;1.40;99.90
31271;DHT22;17904;47.420;9.310;2022-12-07T04:42:24;1.40;99.90
31271;DHT22;17904;47.420;9.310;2022-12-07T04:44:51;1.40;99.90
31271;DHT22;17904;47.420;9.310;2022-12-07T04:47:17;1.40;99.90
31271;DHT22;17904;47.420;9.310;2022-12-07T04:49:44;1.40;99.90
31271;DHT22;17904;47.420;9.310;2022-12-07T04:52:11;1.40;99.90
31271;DHT22;17904;47.420;9.310;2022-12-07T04:54:38;1.40;99.90
31271;DHT22;17904;47.420;9.310;2022-12-07T04:57:04;1.40;99.90
31271;DHT22;17904;47.420;9.310;2022-12-07T04:59:31;1.40;99.90
31271;DHT22;17904;47.420;9.310;2022-12-07T05:01:58;1.40;99.90
31271;DHT22;17904;47.420;9.310;2022-12-07T05:04:24;1.40;99.90
31271;DHT22;17904;47.420;9.310;2022-12-07T05:06:51;1.40;99.90
31271;DHT22;17904;47.420;9.310;2022-12-07T05:09:18;1.40;99.90
31271;DHT22;17904;47.420;9.310;2022-12-07T05:11:45;1.40;99.90
31271;DHT22;17904;47.420;9.310;2022-12-07T05:14:12;1.30;99.90
31271;DHT22;17904;47.420;9.310;2022-12-07T05:16:40;1.30;99.90
31271;DHT22;17904;47.420;9.310;2022-12-07T05:19:08;1.30;99.90
31271;DHT22;17904;47.420;9.310;2022-12-07T05:21:36;1.40;99.90
31271;DHT22;17904;47.420;9.310;2022-12-07T05:24:04;1.40;99.90
31271;DHT22;17904;47.420;9.310;2022-12-07T05:26:31;1.30;99.90
31271;DHT22;17904;47.420;9.310;2022-12-07T05:28:57;1.30;99.90
31271;DHT22;17904;47.420;9.310;2022-12-07T05:31:25;1.30;99.90
31271;DHT22;17904;47.420;9.310;2022-12-07T05:33:53;1.30;99.90
31271;DHT22;17904;47.420;9.310;2022-12-07T05:36:20;1.30;99.90
31271;DHT22;17904;47.420;9.310;2022-12-07T05:38:47;1.30;99.90
31271;DHT22;17904;47.420;9.310;2022-12-07T05:41:15;1.30;99.90
31271;DHT22;17904;47.420;9.310;2022-12-07T05:44:01;1.30;99.90
31271;DHT22;17904;47.420;9.310;2022-12-07T05:46:28;1.30;99.90
31271;DHT22;17904;47.420;9.310;2022-12-07T05:48:55;1.30;99.90
31271;DHT22;17904;47.420;9.310;2022-12-07T05:51:22;1.30;99.90
31271;DHT22;17904;47.420;9.310;2022-12-07T05:53:48;1.30;99.90
31271;DHT22;17904;47.420;9.310;2022-12-07T05:56:15;1.30;99.90
31271;DHT22;17904;47.420;9.310;2022-12-07T05:58:42;1.30;99.90
31271;DHT22;17904;47.420;9.310;2022-12-07T06:01:27;1.30;99.90
31271;DHT22;17904;47.420;9.310;2022-12-07T06:03:54;1.30;99.90
31271;DHT22;17904;47.420;9.310;2022-12-07T06:06:21;1.30;99.90
31271;DHT22;17904;47.420;9.310;2022-12-07T06:08:48;1.20;99.90
31271;DHT22;17904;47.420;9.310;2022-12-07T06:11:14;1.20;99.90
31271;DHT22;17904;47.420;9.310;2022-12-07T06:14:00;1.30;99.90
31271;DHT22;17904;47.420;9.310;2022-12-07T06:16:27;1.20;99.90
31271;DHT22;17904;47.420;9.310;2022-12-07T06:18:54;1.30;99.90
31271;DHT22;17904;47.420;9.310;2022-12-07T06:21:20;1.30;99.90
31271;DHT22;17904;47.420;9.310;2022-12-07T06:23:47;1.30;99.90
31271;DHT22;17904;47.420;9.310;2022-12-07T06:26:14;1.30;99.90
31271;DHT22;17904;47.420;9.310;2022-12-07T06:28:41;1.30;99.90
31271;DHT22;17904;47.420;9.310;2022-12-07T06:31:07;1.30;99.90
31271;DHT22;17904;47.420;9.310;2022-12-07T06:33:40;1.30;99.90
31271;DHT22;17904;47.420;9.310;2022-12-07T06:36:08;1.30;99.90
31271;DHT22;17904;47.420;9.310;2022-12-07T06:38:35;1.40;99.90
31271;DHT22;17904;47.420;9.310;2022-12-07T06:41:02;1.40;99.90
31271;DHT22;17904;47.420;9.310;2022-12-07T06:43:29;1.40;99.90
31271;DHT22;17904;47.420;9.310;2022-12-07T06:45:56;1.40;99.90
31271;DHT22;17904;47.420;9.310;2022-12-07T06:48:23;1.40;99.90
31271;DHT22;17904;47.420;9.310;2022-12-07T06:50:50;1.40;99.90
31271;DHT22;17904;47.420;9.310;2022-12-07T06:53:21;1.40;99.90
31271;DHT22;17904;47.420;9.310;2022-12-07T06:55:49;1.40;99.90
31271;DHT22;17904;47.420;9.310;2022-12-07T06:58:16;1.40;99.90
31271;DHT22;17904;47.420;9.310;2022-12-07T07:00:44;1.40;99.90
31271;DHT22;17904;47.420;9.310;2022-12-07T07:03:11;1.40;99.90
31271;DHT22;17904;47.420;9.310;2022-12-07T07:05:38;1.40;99.90
31271;DHT22;17904;47.420;9.310;2022-12-07T07:08:04;1.50;99.90
31271;DHT22;17904;47.420;9.310;2022-12-07T07:10:48;1.50;99.90
31271;DHT22;17904;47.420;9.310;2022-12-07T07:13:15;1.50;99.90
31271;DHT22;17904;47.420;9.310;2022-12-07T07:15:42;1.50;99.90
31271;DHT22;17904;47.420;9.310;2022-12-07T07:18:09;1.50;99.90
31271;DHT22;17904;47.420;9.310;2022-12-07T07:20:37;1.50;99.90
31271;DHT22;17904;47.420;9.310;2022-12-07T07:23:04;1.50;99.90
31271;DHT22;17904;47.420;9.310;2022-12-07T07:25:32;1.50;99.90
31271;DHT22;17904;47.420;9.310;2022-12-07T07:27:59;1.50;99.90
31271;DHT22;17904;47.420;9.310;2022-12-07T07:30:26;1.50;99.90
31271;DHT22;17904;47.420;9.310;2022-12-07T07:32:57;1.60;99.90
31271;DHT22;17904;47.420;9.310;2022-12-07T07:35:29;1.60;99.90
31271;DHT22;17904;47.420;9.310;2022-12-07T07:37:56;1.60;99.90
31271;DHT22;17904;47.420;9.310;2022-12-07T07:40:23;1.60;99.90
31271;DHT22;17904;47.420;9.310;2022-12-07T07:42:51;1.60;99.90
31271;DHT22;17904;47.420;9.310;2022-12-07T07:45:20;1.60;99.90
31271;DHT22;17904;47.420;9.310;2022-12-07T07:47:47;1.60;99.90
31271;DHT22;17904;47.420;9.310;2022-12-07T07:50:14;1.60;99.90
31271;DHT22;17904;47.420;9.310;2022-12-07T07:52:43;1.60;99.90
31271;DHT22;17904;47.420;9.310;2022-12-07T07:55:10;1.60;99.90
31271;DHT22;17904;47.420;9.310;2022-12-07T07:57:38;1.60;99.90
31271;DHT22;17904;47.420;9.310;2022-12-07T08:00:09;1.60;99.90
31271;DHT22;17904;47.420;9.310;2022-12-07T08:02:40;1.60;99.90
31271;DHT22;17904;47.420;9.310;2022-12-07T08:05:07;1.60;99.90
31271;DHT22;17904;47.420;9.310;2022-12-07T08:07:34;1.50;99.90
31271;DHT22;17904;47.420;9.310;2022-12-07T08:10:01;1.50;99.90
31271;DHT22;17904;47.420;9.310;2022-12-07T08:12:29;1.50;99.90
31271;DHT22;17904;47.420;9.310;2022-12-07T08:14:55;1.50;99.90
31271;DHT22;17904;47.420;9.310;2022-12-07T08:17:22;1.50;99.90
31271;DHT22;17904;47.420;9.310;2022-12-07T08:19:48;1.50;99.90
31271;DHT22;17904;47.420;9.310;2022-12-07T08:22:15;1.50;99.90
31271;DHT22;17904;47.420;9.310;2022-12-07T08:24:42;1.50;99.90
31271;DHT22;17904;47.420;9.310;2022-12-07T08:27:09;1.50;99.90
31271;DHT22;17904;47.420;9.310;2022-12-07T08:29:36;1.50;99.90
31271;DHT22;17904;47.420;9.310;2022-12-07T08:32:03;1.50;99.90
31271;DHT22;17904;47.420;9.310;2022-12-07T08:34:35;1.50;99.90
31271;DHT22;17904;47.420;9.310;2022-12-07T08:37:03;1.50;99.90
31271;DHT22;17904;47.420;9.310;2022-12-07T08:39:30;1.60;99.90
31271;DHT22;17904;47.420;9.310;2022-12-07T08:41:58;1.60;99.90
31271;DHT22;17904;47.420;9.310;2022-12-07T08:44:25;1.60;99.90
31271;DHT22;17904;47.420;9.310;2022-12-07T08:46:56;1.60;99.90
31271;DHT22;17904;47.420;9.310;2022-12-07T08:49:30;1.70;99.90
31271;DHT22;17904;47.420;9.310;2022-12-07T08:51:58;1.70;99.90
31271;DHT22;17904;47.420;9.310;2022-12-07T08:54:25;1.70;99.90
31271;DHT22;17904;47.420;9.310;2022-12-07T08:56:54;1.70;99.90
31271;DHT22;17904;47.420;9.310;2022-12-07T08:59:26;1.70;99.90
31271;DHT22;17904;47.420;9.310;2022-12-07T09:01:54;1.70;99.90
31271;DHT22;17904;47.420;9.310;2022-12-07T09:04:21;1.70;99.90
31271;DHT22;17904;47.420;9.310;2022-12-07T09:06:48;1.70;99.90
31271;DHT22;17904;47.420;9.310;2022-12-07T09:09:15;1.70;99.90
31271;DHT22;17904;47.420;9.310;2022-12-07T09:11:42;1.70;99.90
31271;DHT22;17904;47.420;9.310;2022-12-07T09:14:09;1.70;99.90
31271;DHT22;17904;47.420;9.310;2022-12-07T09:16:35;1.70;99.90
31271;DHT22;17904;47.420;9.310;2022-12-07T09:19:02;1.80;99.90
31271;DHT22;17904;47.420;9.310;2022-12-07T09:21:29;1.80;99.90
31271;DHT22;17904;47.420;9.310;2022-12-07T09:23:56;1.80;99.90
31271;DHT22;17904;47.420;9.310;2022-12-07T09:26:23;1.80;99.90
31271;DHT22;17904;47.420;9.310;2022-12-07T09:28:49;1.80;99.90
31271;DHT22;17904;47.420;9.310;2022-12-07T09:31:16;1.80;99.90
31271;DHT22;17904;47.420;9.310;2022-12-07T09:33:56;1.80;99.90
31271;DHT22;17904;47.420;9.310;2022-12-07T09:36:24;1.80;99.90
31271;DHT22;17904;47.420;9.310;2022-12-07T09:38:51;1.80;99.90
31271;DHT22;17904;47.420;9.310;2022-12-07T09:41:18;1.90;99.90
31271;DHT22;17904;47.420;9.310;2022-12-07T09:43:46;1.80;99.90
31271;DHT22;17904;47.420;9.310;2022-12-07T09:46:15;1.90;99.90
31271;DHT22;17904;47.420;9.310;2022-12-07T09:48:44;1.90;99.90
31271;DHT22;17904;47.420;9.310;2022-12-07T09:51:22;1.90;99.90
31271;DHT22;17904;47.420;9.310;2022-12-07T09:53:52;1.90;99.90
31271;DHT22;17904;47.420;9.310;2022-12-07T09:56:20;1.90;99.90
31271;DHT22;17904;47.420;9.310;2022-12-07T09:58:48;2.00;99.90
31271;DHT22;17904;47.420;9.310;2022-12-07T10:01:20;2.00;99.90
31271;DHT22;17904;47.420;9.310;2022-12-07T10:03:54;2.00;99.90
31271;DHT22;17904;47.420;9.310;2022-12-07T10:06:23;2.00;99.90
31271;DHT22;17904;47.420;9.310;2022-12-07T10:08:50;2.10;99.90
31271;DHT22;17904;47.420;9.310;2022-12-07T10:11:16;2.10;99.90
31271;DHT22;17904;47.420;9.310;2022-12-07T10:13:46;2.10;99.90
31271;DHT22;17904;47.420;9.310;2022-12-07T10:18:52;2.10;99.90
31271;DHT22;17904;47.420;9.310;2022-12-07T10:21:23;2.20;99.90
31271;DHT22;17904;47.420;9.310;2022-12-07T10:26:53;2.20;99.90
31271;DHT22;17904;47.420;9.310;2022-12-07T10:29:47;2.20;99.90
31271;DHT22;17904;47.420;9.310;2022-12-07T10:34:43;2.20;99.90
31271;DHT22;17904;47.420;9.310;2022-12-07T10:37:19;2.20;99.90
31271;DHT22;17904;47.420;9.310;2022-12-07T10:39:52;2.20;99.90
31271;DHT22;17904;47.420;9.310;2022-12-07T10:42:27;2.30;99.90
31271;DHT22;17904;47.420;9.310;2022-12-07T10:45:17;2.30;99.90
31271;DHT22;17904;47.420;9.310;2022-12-07T10:47:54;2.30;99.90
31271;DHT22;17904;47.420;9.310;2022-12-07T10:56:06;2.20;99.90
31271;DHT22;17904;47.420;9.310;2022-12-07T11:04:07;2.20;99.90
31271;DHT22;17904;47.420;9.310;2022-12-07T11:12:47;2.20;99.90
31271;DHT22;17904;47.420;9.310;2022-12-07T11:15:20;2.20;99.90
31271;DHT22;17904;47.420;9.310;2022-12-07T11:20:38;2.20;99.90
31271;DHT22;17904;47.420;9.310;2022-12-07T11:32:14;2.30;99.90
31271;DHT22;17904;47.420;9.310;2022-12-07T11:34:59;2.40;99.90
31271;DHT22;17904;47.420;9.310;2022-12-07T11:37:33;2.40;99.90
31271;DHT22;17904;47.420;9.310;2022-12-07T11:40:20;2.40;99.90
31271;DHT22;17904;47.420;9.310;2022-12-07T11:43:16;2.40;99.90
31271;DHT22;17904;47.420;9.310;2022-12-07T11:45:48;2.50;99.90
31271;DHT22;17904;47.420;9.310;2022-12-07T11:51:07;2.50;99.90
31271;DHT22;17904;47.420;9.310;2022-12-07T11:53:51;2.40;99.90
31271;DHT22;17904;47.420;9.310;2022-12-07T11:56:21;2.40;99.90
31271;DHT22;17904;47.420;9.310;2022-12-07T11:59:00;2.40;99.90
31271;DHT22;17904;47.420;9.310;2022-12-07T12:06:41;2.50;99.90
31271;DHT22;17904;47.420;9.310;2022-12-07T12:21:31;2.60;99.90
31271;DHT22;17904;47.420;9.310;2022-12-07T12:24:22;2.60;99.90
31271;DHT22;17904;47.420;9.310;2022-12-07T12:27:37;2.70;99.90
31271;DHT22;17904;47.420;9.310;2022-12-07T12:29:41;2.70;99.90
31271;DHT22;17904;47.420;9.310;2022-12-07T12:32:18;2.70;99.90
31271;DHT22;17904;47.420;9.310;2022-12-07T12:37:47;2.80;99.90
31271;DHT22;17904;47.420;9.310;2022-12-07T12:42:46;2.80;99.90
31271;DHT22;17904;47.420;9.310;2022-12-07T12:48:04;2.70;99.90
31271;DHT22;17904;47.420;9.310;2022-12-07T12:50:36;2.70;99.90
31271;DHT22;17904;47.420;9.310;2022-12-07T12:53:19;2.70;99.90
31271;DHT22;17904;47.420;9.310;2022-12-07T12:55:55;2.60;99.90
31271;DHT22;17904;47.420;9.310;2022-12-07T12:58:32;2.70;99.90
31271;DHT22;17904;47.420;9.310;2022-12-07T13:03:55;2.60;99.90
31271;DHT22;17904;47.420;9.310;2022-12-07T13:08:55;2.50;99.90
31271;DHT22;17904;47.420;9.310;2022-12-07T13:11:35;2.50;99.90
31271;DHT22;17904;47.420;9.310;2022-12-07T13:17:11;2.40;99.90
31271;DHT22;17904;47.420;9.310;2022-12-07T13:25:30;2.40;99.90
31271;DHT22;17904;47.420;9.310;2022-12-07T13:28:09;2.40;99.90
31271;DHT22;17904;47.420;9.310;2022-12-07T13:31:30;2.40;99.90
31271;DHT22;17904;47.420;9.310;2022-12-07T13:33:32;2.40;99.90
31271;DHT22;17904;47.420;9.310;2022-12-07T13:36:00;2.50;99.90
31271;DHT22;17904;47.420;9.310;2022-12-07T13:38:35;2.50;99.90
31271;DHT22;17904;47.420;9.310;2022-12-07T13:43:30;2.50;99.90
31271;DHT22;17904;47.420;9.310;2022-12-07T13:45:58;2.50;99.90
31271;DHT22;17904;47.420;9.310;2022-12-07T13:48:31;2.50;99.90
31271;DHT22;17904;47.420;9.310;2022-12-07T13:51:02;2.60;99.90
31271;DHT22;17904;47.420;9.310;2022-12-07T13:53:30;2.60;99.90
31271;DHT22;17904;47.420;9.310;2022-12-07T13:55:58;2.60;99.90
31271;DHT22;17904;47.420;9.310;2022-12-07T13:58:29;2.60;99.90
31271;DHT22;17904;47.420;9.310;2022-12-07T14:00:57;2.60;99.90
31271;DHT22;17904;47.420;9.310;2022-12-07T14:03:31;2.70;99.90
31271;DHT22;17904;47.420;9.310;2022-12-07T14:06:17;2.70;99.90
31271;DHT22;17904;47.420;9.310;2022-12-07T14:08:45;2.70;99.90
31271;DHT22;17904;47.420;9.310;2022-12-07T14:11:19;2.70;99.90
31271;DHT22;17904;47.420;9.310;2022-12-07T14:13:59;2.70;99.90
31271;DHT22;17904;47.420;9.310;2022-12-07T14:16:36;2.70;99.90
31271;DHT22;17904;47.420;9.310;2022-12-07T14:19:06;2.70;99.90
31271;DHT22;17904;47.420;9.310;2022-12-07T14:22:06;2.80;99.90
31271;DHT22;17904;47.420;9.310;2022-12-07T14:24:42;2.80;99.90
31271;DHT22;17904;47.420;9.310;2022-12-07T14:27:23;2.80;99.90
31271;DHT22;17904;47.420;9.310;2022-12-07T14:29:52;2.80;99.90
31271;DHT22;17904;47.420;9.310;2022-12-07T14:32:23;2.80;99.90
31271;DHT22;17904;47.420;9.310;2022-12-07T14:34:56;2.80;99.90
31271;DHT22;17904;47.420;9.310;2022-12-07T14:37:24;2.70;99.90
31271;DHT22;17904;47.420;9.310;2022-12-07T14:39:51;2.70;99.90
31271;DHT22;17904;47.420;9.310;2022-12-07T14:42:18;2.70;99.90
31271;DHT22;17904;47.420;9.310;2022-12-07T14:44:46;2.70;99.90
31271;DHT22;17904;47.420;9.310;2022-12-07T14:47:12;2.70;99.90
31271;DHT22;17904;47.420;9.310;2022-12-07T14:49:59;2.70;99.90
31271;DHT22;17904;47.420;9.310;2022-12-07T14:52:32;2.70;99.90
31271;DHT22;17904;47.420;9.310;2022-12-07T14:55:24;2.70;99.90
31271;DHT22;17904;47.420;9.310;2022-12-07T14:57:51;2.60;99.90
31271;DHT22;17904;47.420;9.310;2022-12-07T15:00:19;2.60;99.90
31271;DHT22;17904;47.420;9.310;2022-12-07T15:02:48;2.60;99.90
31271;DHT22;17904;47.420;9.310;2022-12-07T15:05:16;2.60;99.90
31271;DHT22;17904;47.420;9.310;2022-12-07T15:07:44;2.50;99.90
31271;DHT22;17904;47.420;9.310;2022-12-07T15:10:20;2.60;99.90
31271;DHT22;17904;47.420;9.310;2022-12-07T15:12:50;2.60;99.90
31271;DHT22;17904;47.420;9.310;2022-12-07T15:15:17;2.60;99.90
31271;DHT22;17904;47.420;9.310;2022-12-07T15:17:44;2.50;99.90
31271;DHT22;17904;47.420;9.310;2022-12-07T15:20:12;2.60;99.90
31271;DHT22;17904;47.420;9.310;2022-12-07T15:22:39;2.50;99.90
31271;DHT22;17904;47.420;9.310;2022-12-07T15:25:07;2.50;99.90
31271;DHT22;17904;47.420;9.310;2022-12-07T15:27:34;2.40;99.90
31271;DHT22;17904;47.420;9.310;2022-12-07T15:30:01;2.40;99.90
31271;DHT22;17904;47.420;9.310;2022-12-07T15:32:28;2.40;99.90
31271;DHT22;17904;47.420;9.310;2022-12-07T15:34:54;2.40;99.90
31271;DHT22;17904;47.420;9.310;2022-12-07T15:37:21;2.40;99.90
31271;DHT22;17904;47.420;9.310;2022-12-07T15:39:48;2.40;99.90
31271;DHT22;17904;47.420;9.310;2022-12-07T15:42:15;2.30;99.90
31271;DHT22;17904;47.420;9.310;2022-12-07T15:44:41;2.40;99.90
31271;DHT22;17904;47.420;9.310;2022-12-07T15:47:27;2.30;99.90
31271;DHT22;17904;47.420;9.310;2022-12-07T15:49:54;2.30;99.90
31271;DHT22;17904;47.420;9.310;2022-12-07T15:52:24;2.20;99.90
31271;DHT22;17904;47.420;9.310;2022-12-07T15:54:50;2.20;99.90
31271;DHT22;17904;47.420;9.310;2022-12-07T15:57:17;2.20;99.90
31271;DHT22;17904;47.420;9.310;2022-12-07T15:59:51;2.20;99.90
31271;DHT22;17904;47.420;9.310;2022-12-07T16:02:18;2.20;99.90
31271;DHT22;17904;47.420;9.310;2022-12-07T16:04:44;2.20;99.90
31271;DHT22;17904;47.420;9.310;2022-12-07T16:07:12;2.10;99.90
31271;DHT22;17904;47.420;9.310;2022-12-07T16:09:41;2.10;99.90
31271;DHT22;17904;47.420;9.310;2022-12-07T16:12:10;2.10;99.90
31271;DHT22;17904;47.420;9.310;2022-12-07T16:14:37;2.10;99.90
31271;DHT22;17904;47.420;9.310;2022-12-07T16:17:05;2.10;99.90
31271;DHT22;17904;47.420;9.310;2022-12-07T16:19:36;2.10;99.90
31271;DHT22;17904;47.420;9.310;2022-12-07T16:22:04;2.00;99.90
31271;DHT22;17904;47.420;9.310;2022-12-07T16:24:32;2.00;99.90
31271;DHT22;17904;47.420;9.310;2022-12-07T16:26:59;2.00;99.90
31271;DHT22;17904;47.420;9.310;2022-12-07T16:29:25;2.00;99.90
31271;DHT22;17904;47.420;9.310;2022-12-07T16:31:52;2.00;99.90
31271;DHT22;17904;47.420;9.310;2022-12-07T16:34:19;2.00;99.90
31271;DHT22;17904;47.420;9.310;2022-12-07T16:36:45;2.00;99.90
31271;DHT22;17904;47.420;9.310;2022-12-07T16:39:31;2.00;99.90
31271;DHT22;17904;47.420;9.310;2022-12-07T16:41:57;2.00;99.90
31271;DHT22;17904;47.420;9.310;2022-12-07T16:44:24;2.00;99.90
31271;DHT22;17904;47.420;9.310;2022-12-07T16:46:51;1.90;99.90
31271;DHT22;17904;47.420;9.310;2022-12-07T16:49:18;1.90;99.90
31271;DHT22;17904;47.420;9.310;2022-12-07T16:51:45;1.90;99.90
31271;DHT22;17904;47.420;9.310;2022-12-07T16:54:36;1.90;99.90
31271;DHT22;17904;47.420;9.310;2022-12-07T16:57:03;1.80;99.90
31271;DHT22;17904;47.420;9.310;2022-12-07T16:59:29;1.80;99.90
31271;DHT22;17904;47.420;9.310;2022-12-07T17:01:56;1.80;99.90
31271;DHT22;17904;47.420;9.310;2022-12-07T17:04:23;1.80;99.90
31271;DHT22;17904;47.420;9.310;2022-12-07T17:06:50;1.80;99.90
31271;DHT22;17904;47.420;9.310;2022-12-07T17:09:17;1.80;99.90
31271;DHT22;17904;47.420;9.310;2022-12-07T17:11:47;1.80;99.90
31271;DHT22;17904;47.420;9.310;2022-12-07T17:14:14;1.80;99.90
31271;DHT22;17904;47.420;9.310;2022-12-07T17:17:00;1.70;99.90
31271;DHT22;17904;47.420;9.310;2022-12-07T17:19:27;1.70;99.90
31271;DHT22;17904;47.420;9.310;2022-12-07T17:21:54;1.70;99.90
31271;DHT22;17904;47.420;9.310;2022-12-07T17:24:21;1.70;99.90
31271;DHT22;17904;47.420;9.310;2022-12-07T17:26:48;1.70;99.90
31271;DHT22;17904;47.420;9.310;2022-12-07T17:29:17;1.70;99.90
31271;DHT22;17904;47.420;9.310;2022-12-07T17:31:45;1.70;99.90
31271;DHT22;17904;47.420;9.310;2022-12-07T17:34:18;1.70;99.90
31271;DHT22;17904;47.420;9.310;2022-12-07T17:36:45;1.70;99.90
31271;DHT22;17904;47.420;9.310;2022-12-07T17:39:16;1.70;99.90
31271;DHT22;17904;47.420;9.310;2022-12-07T17:41:43;1.70;99.90
31271;DHT22;17904;47.420;9.310;2022-12-07T17:44:29;1.70;99.90
31271;DHT22;17904;47.420;9.310;2022-12-07T17:46:56;1.70;99.90
31271;DHT22;17904;47.420;9.310;2022-12-07T17:49:28;1.70;99.90
31271;DHT22;17904;47.420;9.310;2022-12-07T17:51:55;1.70;99.90
31271;DHT22;17904;47.420;9.310;2022-12-07T17:54:41;1.70;99.90
31271;DHT22;17904;47.420;9.310;2022-12-07T17:57:08;1.70;99.90
31271;DHT22;17904;47.420;9.310;2022-12-07T17:59:35;1.70;99.90